Mattawana, Pennsylvania
Current Conditions -  °F | °C
As of 11:53 AM on Wednesday 26 Nov 2014 (Local Time) from KUNV Reporting Station
Light Snow Light Snow  
Wind Chill: 26°   Ceiling: 300
Heat Index: 32°   Visibility: 0.75mi
Dew Point: 30°   Wind: 6mph
Humidity: 93%   Direction: 30°NNE
Pressure: 30.05"   Gusts: NA
Location:  40.5°N, 77.73°W
Report Text: KUNV 261653Z 03005KT 3/4SM -SN BR OVC003 00/M01 A3005
Loading
Personal Weather Stations






























Interactive Weather Map New forecast layout! Learn more

10-Day Weather Forecast

Advertisements
Track Severe Weather on mobile